sensor_id;sensor_type;location;lat;lon;timestamp;pressure;altitude;pressure_sealevel;temperature;humidity
54910;BME280;63189;51.240;9.964;2022-11-02T00:01:30;98232.56;;;9.14;77.32
54910;BME280;63189;51.240;9.964;2022-11-02T00:03:58;98230.00;;;9.13;77.41
54910;BME280;63189;51.240;9.964;2022-11-02T00:06:23;98238.78;;;9.07;77.85
54910;BME280;63189;51.240;9.964;2022-11-02T00:08:48;98218.13;;;9.00;78.39
54910;BME280;63189;51.240;9.964;2022-11-02T00:11:13;98214.72;;;8.98;78.55
54910;BME280;63189;51.240;9.964;2022-11-02T00:13:39;98221.63;;;8.99;78.46
54910;BME280;63189;51.240;9.964;2022-11-02T00:16:07;98215.53;;;9.00;78.44
54910;BME280;63189;51.240;9.964;2022-11-02T00:18:35;98214.72;;;8.98;78.51
54910;BME280;63189;51.240;9.964;2022-11-02T00:21:02;98206.94;;;8.94;78.84
54910;BME280;63189;51.240;9.964;2022-11-02T00:23:29;98226.94;;;8.92;79.40
54910;BME280;63189;51.240;9.964;2022-11-02T00:25:56;98211.44;;;8.88;79.38
54910;BME280;63189;51.240;9.964;2022-11-02T00:28:21;98220.00;;;8.91;79.19
54910;BME280;63189;51.240;9.964;2022-11-02T00:30:47;98218.25;;;8.93;79.38
54910;BME280;63189;51.240;9.964;2022-11-02T00:33:12;98213.19;;;8.87;79.52
54910;BME280;63189;51.240;9.964;2022-11-02T00:35:38;98223.50;;;8.90;79.34
54910;BME280;63189;51.240;9.964;2022-11-02T00:38:04;98226.94;;;8.92;79.47
54910;BME280;63189;51.240;9.964;2022-11-02T00:40:30;98208.88;;;8.85;79.65
54910;BME280;63189;51.240;9.964;2022-11-02T00:42:55;98214.06;;;8.85;80.18
54910;BME280;63189;51.240;9.964;2022-11-02T00:45:21;98203.88;;;8.76;80.33
54910;BME280;63189;51.240;9.964;2022-11-02T00:47:47;98209.94;;;8.76;80.47
54910;BME280;63189;51.240;9.964;2022-11-02T00:50:12;98210.78;;;8.75;81.04
54910;BME280;63189;51.240;9.964;2022-11-02T00:52:39;98214.38;;;8.70;81.29
54910;BME280;63189;51.240;9.964;2022-11-02T00:55:05;98210.84;;;8.72;81.05
54910;BME280;63189;51.240;9.964;2022-11-02T00:57:31;98209.22;;;8.68;81.41
54910;BME280;63189;51.240;9.964;2022-11-02T00:59:56;98211.81;;;8.68;81.13
54910;BME280;63189;51.240;9.964;2022-11-02T01:02:21;98205.81;;;8.63;81.65
54910;BME280;63189;51.240;9.964;2022-11-02T01:04:46;98203.38;;;8.54;82.20
54910;BME280;63189;51.240;9.964;2022-11-02T01:07:12;98206.88;;;8.53;81.82
54910;BME280;63189;51.240;9.964;2022-11-02T01:09:37;98197.28;;;8.58;81.65
54910;BME280;63189;51.240;9.964;2022-11-02T01:12:03;98199.88;;;8.58;82.15
54910;BME280;63189;51.240;9.964;2022-11-02T01:14:29;98187.88;;;8.51;81.96
54910;BME280;63189;51.240;9.964;2022-11-02T01:16:54;98185.19;;;8.54;82.37
54910;BME280;63189;51.240;9.964;2022-11-02T01:19:22;98190.38;;;8.57;82.07
54910;BME280;63189;51.240;9.964;2022-11-02T01:21:47;98180.00;;;8.54;82.33
54910;BME280;63189;51.240;9.964;2022-11-02T01:24:13;98186.03;;;8.57;82.15
54910;BME280;63189;51.240;9.964;2022-11-02T01:26:38;98186.03;;;8.57;82.02
54910;BME280;63189;51.240;9.964;2022-11-02T01:29:03;98162.97;;;8.39;83.17
54910;BME280;63189;51.240;9.964;2022-11-02T01:31:29;98187.13;;;8.43;83.03
54910;BME280;63189;51.240;9.964;2022-11-02T01:33:54;98171.56;;;8.43;83.13
54910;BME280;63189;51.240;9.964;2022-11-02T01:36:19;98179.41;;;8.39;83.89
54910;BME280;63189;51.240;9.964;2022-11-02T01:38:45;98170.75;;;8.39;83.83
54910;BME280;63189;51.240;9.964;2022-11-02T01:41:11;98171.66;;;8.38;83.91
54910;BME280;63189;51.240;9.964;2022-11-02T01:43:40;98179.41;;;8.39;83.98
54910;BME280;63189;51.240;9.964;2022-11-02T01:48:54;98168.09;;;8.42;84.05
54910;BME280;63189;51.240;9.964;2022-11-02T01:53:50;98164.78;;;8.35;83.89
54910;BME280;63189;51.240;9.964;2022-11-02T01:56:19;98163.88;;;8.36;84.23
54910;BME280;63189;51.240;9.964;2022-11-02T01:58:48;98161.19;;;8.41;84.03
54910;BME280;63189;51.240;9.964;2022-11-02T02:01:16;98148.19;;;8.41;83.74
54910;BME280;63189;51.240;9.964;2022-11-02T02:03:42;98149.13;;;8.38;84.25
54910;BME280;63189;51.240;9.964;2022-11-02T02:06:12;98147.44;;;8.36;84.92
54910;BME280;63189;51.240;9.964;2022-11-02T02:08:41;98137.06;;;8.33;84.94
54910;BME280;63189;51.240;9.964;2022-11-02T02:13:48;98137.13;;;8.30;85.23
54910;BME280;63189;51.240;9.964;2022-11-02T02:16:19;98127.59;;;8.30;85.60
54910;BME280;63189;51.240;9.964;2022-11-02T02:18:49;98133.59;;;8.34;85.57
54910;BME280;63189;51.240;9.964;2022-11-02T02:24:19;98121.53;;;8.30;85.88
54910;BME280;63189;51.240;9.964;2022-11-02T02:26:59;98121.53;;;8.30;85.40
54910;BME280;63189;51.240;9.964;2022-11-02T02:38:01;98128.41;;;8.32;85.71
54910;BME280;63189;51.240;9.964;2022-11-02T02:40:44;98113.00;;;8.25;86.56
54910;BME280;63189;51.240;9.964;2022-11-02T02:43:19;98120.81;;;8.22;86.57
54910;BME280;63189;51.240;9.964;2022-11-02T02:45:53;98122.63;;;8.18;87.38
54910;BME280;63189;51.240;9.964;2022-11-02T02:48:21;98119.94;;;8.24;86.38
54910;BME280;63189;51.240;9.964;2022-11-02T02:50:58;98122.50;;;8.26;86.43
54910;BME280;63189;51.240;9.964;2022-11-02T02:53:38;98128.59;;;8.23;86.96
54910;BME280;63189;51.240;9.964;2022-11-02T02:56:06;98110.53;;;8.17;87.59
54910;BME280;63189;51.240;9.964;2022-11-02T02:58:37;98120.81;;;8.23;87.13
54910;BME280;63189;51.240;9.964;2022-11-02T03:01:05;98109.53;;;8.23;87.15
54910;BME280;63189;51.240;9.964;2022-11-02T03:03:32;98101.03;;;8.16;87.50
54910;BME280;63189;51.240;9.964;2022-11-02T03:06:15;98113.94;;;8.19;87.39
54910;BME280;63189;51.240;9.964;2022-11-02T03:08:47;98099.31;;;8.15;87.62
54910;BME280;63189;51.240;9.964;2022-11-02T03:11:15;98114.72;;;8.23;87.53
54910;BME280;63189;51.240;9.964;2022-11-02T03:19:28;98104.38;;;8.21;87.62
54910;BME280;63189;51.240;9.964;2022-11-02T03:30:19;98098.50;;;8.13;88.16
54910;BME280;63189;51.240;9.964;2022-11-02T03:35:18;98101.94;;;8.12;88.63
54910;BME280;63189;51.240;9.964;2022-11-02T03:37:55;98091.63;;;8.09;88.93
54910;BME280;63189;51.240;9.964;2022-11-02T03:40:29;98099.38;;;8.10;88.80
54910;BME280;63189;51.240;9.964;2022-11-02T03:42:58;98103.72;;;8.10;89.02
54910;BME280;63189;51.240;9.964;2022-11-02T03:45:29;98105.44;;;8.11;89.46
54910;BME280;63189;51.240;9.964;2022-11-02T03:48:01;98114.03;;;8.15;89.56
54910;BME280;63189;51.240;9.964;2022-11-02T03:50:28;98114.81;;;8.20;89.19
54910;BME280;63189;51.240;9.964;2022-11-02T03:53:02;98114.72;;;8.24;89.00
54910;BME280;63189;51.240;9.964;2022-11-02T03:55:34;98109.56;;;8.21;89.12
54910;BME280;63189;51.240;9.964;2022-11-02T03:58:01;98114.66;;;8.27;88.97
54910;BME280;63189;51.240;9.964;2022-11-02T04:00:30;98106.94;;;8.24;89.05
54910;BME280;63189;51.240;9.964;2022-11-02T04:02:59;98114.63;;;8.29;89.10
54910;BME280;63189;51.240;9.964;2022-11-02T04:05:33;98115.56;;;8.26;89.65
54910;BME280;63189;51.240;9.964;2022-11-02T04:07:58;98117.25;;;8.27;89.24
54910;BME280;63189;51.240;9.964;2022-11-02T04:10:43;98125.03;;;8.29;89.13
54910;BME280;63189;51.240;9.964;2022-11-02T04:13:27;98120.75;;;8.26;89.17
54910;BME280;63189;51.240;9.964;2022-11-02T04:16:12;98125.09;;;8.26;89.78
54910;BME280;63189;51.240;9.964;2022-11-02T04:18:37;98113.88;;;8.22;89.69
54910;BME280;63189;51.240;9.964;2022-11-02T04:21:21;98122.56;;;8.21;90.59
54910;BME280;63189;51.240;9.964;2022-11-02T04:23:46;98114.88;;;8.17;89.90
54910;BME280;63189;51.240;9.964;2022-11-02T04:26:30;98115.72;;;8.17;90.84
54910;BME280;63189;51.240;9.964;2022-11-02T04:28:56;98096.75;;;8.12;90.75
54910;BME280;63189;51.240;9.964;2022-11-02T04:31:21;98106.25;;;8.15;90.60
54910;BME280;63189;51.240;9.964;2022-11-02T04:33:46;98118.25;;;8.20;91.02
54910;BME280;63189;51.240;9.964;2022-11-02T04:36:11;98119.09;;;8.21;91.30
54910;BME280;63189;51.240;9.964;2022-11-02T04:38:37;98113.19;;;8.14;92.48
54910;BME280;63189;51.240;9.964;2022-11-02T04:41:07;98127.00;;;8.16;92.47
54910;BME280;63189;51.240;9.964;2022-11-02T04:43:51;98120.09;;;8.15;92.73
54910;BME280;63189;51.240;9.964;2022-11-02T04:46:17;98128.72;;;8.16;93.18
54910;BME280;63189;51.240;9.964;2022-11-02T04:48:43;98143.50;;;8.12;94.08
54910;BME280;63189;51.240;9.964;2022-11-02T04:51:08;98138.28;;;8.15;93.72
54910;BME280;63189;51.240;9.964;2022-11-02T04:53:33;98148.56;;;8.20;93.11
54910;BME280;63189;51.240;9.964;2022-11-02T04:55:59;98146.78;;;8.23;93.18
54910;BME280;63189;51.240;9.964;2022-11-02T04:58:25;98148.53;;;8.21;93.85
54910;BME280;63189;51.240;9.964;2022-11-02T05:00:50;98162.31;;;8.26;94.29
54910;BME280;63189;51.240;9.964;2022-11-02T05:03:16;98150.22;;;8.25;93.64
54910;BME280;63189;51.240;9.964;2022-11-02T05:05:41;98152.63;;;8.33;94.70
54910;BME280;63189;51.240;9.964;2022-11-02T05:08:06;98162.03;;;8.42;95.79
54910;BME280;63189;51.240;9.964;2022-11-02T05:10:32;98141.19;;;8.46;96.02
54910;BME280;63189;51.240;9.964;2022-11-02T05:12:58;98140.19;;;8.52;97.11
54910;BME280;63189;51.240;9.964;2022-11-02T05:15:24;98135.75;;;8.58;97.62
54910;BME280;63189;51.240;9.964;2022-11-02T05:17:49;98138.28;;;8.61;97.78
54910;BME280;63189;51.240;9.964;2022-11-02T05:20:15;98134.75;;;8.64;97.65
54910;BME280;63189;51.240;9.964;2022-11-02T05:22:40;98144.22;;;8.68;96.94
54910;BME280;63189;51.240;9.964;2022-11-02T05:25:07;98135.53;;;8.69;96.63
54910;BME280;63189;51.240;9.964;2022-11-02T05:27:32;98130.34;;;8.69;96.56
54910;BME280;63189;51.240;9.964;2022-11-02T05:29:58;98138.97;;;8.71;97.53
54910;BME280;63189;51.240;9.964;2022-11-02T05:32:24;98140.59;;;8.75;97.55
54910;BME280;63189;51.240;9.964;2022-11-02T05:34:50;98141.47;;;8.74;98.08
54910;BME280;63189;51.240;9.964;2022-11-02T05:37:15;98140.59;;;8.75;98.13
54910;BME280;63189;51.240;9.964;2022-11-02T05:39:41;98137.13;;;8.76;98.46
54910;BME280;63189;51.240;9.964;2022-11-02T05:42:06;98138.00;;;8.77;98.45
54910;BME280;63189;51.240;9.964;2022-11-02T05:44:32;98139.75;;;8.76;98.54
54910;BME280;63189;51.240;9.964;2022-11-02T05:46:58;98159.59;;;8.79;98.92
54910;BME280;63189;51.240;9.964;2022-11-02T05:49:23;98149.25;;;8.77;98.21
54910;BME280;63189;51.240;9.964;2022-11-02T05:51:48;98147.47;;;8.79;98.07
54910;BME280;63189;51.240;9.964;2022-11-02T05:54:14;98153.47;;;8.81;98.34
54910;BME280;63189;51.240;9.964;2022-11-02T05:56:39;98149.19;;;8.80;97.93
54910;BME280;63189;51.240;9.964;2022-11-02T05:59:05;98159.56;;;8.80;98.19
54910;BME280;63189;51.240;9.964;2022-11-02T06:01:30;98158.75;;;8.78;97.96
54910;BME280;63189;51.240;9.964;2022-11-02T06:03:55;98169.03;;;8.83;97.97
54910;BME280;63189;51.240;9.964;2022-11-02T06:06:21;98173.31;;;8.85;97.67
54910;BME280;63189;51.240;9.964;2022-11-02T06:08:46;98169.88;;;8.86;97.26
54910;BME280;63189;51.240;9.964;2022-11-02T06:11:12;98178.53;;;8.87;96.81
54910;BME280;63189;51.240;9.964;2022-11-02T06:13:39;98175.06;;;8.86;97.15
54910;BME280;63189;51.240;9.964;2022-11-02T06:16:06;98172.53;;;8.82;96.84
54910;BME280;63189;51.240;9.964;2022-11-02T06:18:34;98176.88;;;8.81;96.47
54910;BME280;63189;51.240;9.964;2022-11-02T06:20:59;98177.84;;;8.77;96.94
54910;BME280;63189;51.240;9.964;2022-11-02T06:23:25;98188.22;;;8.79;96.71
54910;BME280;63189;51.240;9.964;2022-11-02T06:25:52;98186.47;;;8.79;96.94
54910;BME280;63189;51.240;9.964;2022-11-02T06:28:18;98188.28;;;8.76;96.42
54910;BME280;63189;51.240;9.964;2022-11-02T06:30:44;98178.72;;;8.76;96.52
54910;BME280;63189;51.240;9.964;2022-11-02T06:33:09;98192.56;;;8.78;96.52
54910;BME280;63189;51.240;9.964;2022-11-02T06:35:35;98191.69;;;8.78;96.44
54910;BME280;63189;51.240;9.964;2022-11-02T06:38:00;98205.56;;;8.78;96.15
54910;BME280;63189;51.240;9.964;2022-11-02T06:40:25;98204.69;;;8.78;96.20
54910;BME280;63189;51.240;9.964;2022-11-02T06:42:56;98196.00;;;8.79;96.02
54910;BME280;63189;51.240;9.964;2022-11-02T06:45:23;98198.72;;;8.73;96.57
54910;BME280;63189;51.240;9.964;2022-11-02T06:47:49;98214.25;;;8.77;96.33
54910;BME280;63189;51.240;9.964;2022-11-02T06:50:15;98213.34;;;8.78;96.24
54910;BME280;63189;51.240;9.964;2022-11-02T06:52:44;98211.56;;;8.80;96.06
54910;BME280;63189;51.240;9.964;2022-11-02T06:55:11;98215.97;;;8.75;95.87
54910;BME280;63189;51.240;9.964;2022-11-02T06:57:37;98227.75;;;8.94;95.40
54910;BME280;63189;51.240;9.964;2022-11-02T07:00:21;98221.69;;;8.94;95.06
54910;BME280;63189;51.240;9.964;2022-11-02T07:03:08;98223.31;;;9.00;94.67
54910;BME280;63189;51.240;9.964;2022-11-02T07:05:35;98218.00;;;9.06;93.98
54910;BME280;63189;51.240;9.964;2022-11-02T07:08:02;98224.78;;;9.13;93.50
54910;BME280;63189;51.240;9.964;2022-11-02T07:10:27;98239.25;;;9.26;92.84
54910;BME280;63189;51.240;9.964;2022-11-02T07:12:54;98239.03;;;9.37;92.35
54910;BME280;63189;51.240;9.964;2022-11-02T07:15:21;98237.94;;;9.47;91.06
54910;BME280;63189;51.240;9.964;2022-11-02T07:17:47;98246.41;;;9.57;90.63
54910;BME280;63189;51.240;9.964;2022-11-02T07:20:12;98237.66;;;9.61;89.76
54910;BME280;63189;51.240;9.964;2022-11-02T07:22:37;98246.00;;;9.75;89.12
54910;BME280;63189;51.240;9.964;2022-11-02T07:25:03;98246.78;;;9.78;87.91
54910;BME280;63189;51.240;9.964;2022-11-02T07:27:29;98228.59;;;9.77;87.79
54910;BME280;63189;51.240;9.964;2022-11-02T07:29:54;98250.88;;;9.90;87.29
54910;BME280;63189;51.240;9.964;2022-11-02T07:32:19;98254.00;;;10.04;86.09
54910;BME280;63189;51.240;9.964;2022-11-02T07:34:45;98257.13;;;10.19;85.85
54910;BME280;63189;51.240;9.964;2022-11-02T07:37:10;98251.81;;;10.25;84.32
54910;BME280;63189;51.240;9.964;2022-11-02T07:39:35;98256.22;;;10.23;84.02
54910;BME280;63189;51.240;9.964;2022-11-02T07:42:01;98261.94;;;10.37;83.79
54910;BME280;63189;51.240;9.964;2022-11-02T07:44:26;98261.81;;;10.43;82.45
54910;BME280;63189;51.240;9.964;2022-11-02T07:46:51;98269.19;;;10.60;81.60
54910;BME280;63189;51.240;9.964;2022-11-02T07:49:17;98266.00;;;10.81;80.87
54910;BME280;63189;51.240;9.964;2022-11-02T07:51:42;98274.91;;;11.07;79.40
54910;BME280;63189;51.240;9.964;2022-11-02T07:54:08;98280.25;;;11.33;78.71
54910;BME280;63189;51.240;9.964;2022-11-02T07:56:33;98266.09;;;11.42;78.55
54910;BME280;63189;51.240;9.964;2022-11-02T07:58:59;98261.13;;;11.62;77.26
54910;BME280;63189;51.240;9.964;2022-11-02T08:01:24;98273.50;;;11.57;76.27
54910;BME280;63189;51.240;9.964;2022-11-02T08:03:49;98281.31;;;11.57;76.78
54910;BME280;63189;51.240;9.964;2022-11-02T08:06:15;98270.31;;;11.75;76.61
54910;BME280;63189;51.240;9.964;2022-11-02T08:08:40;98265.22;;;12.00;75.63
54910;BME280;63189;51.240;9.964;2022-11-02T08:11:07;98270.72;;;12.19;73.97
54910;BME280;63189;51.240;9.964;2022-11-02T08:13:33;98282.06;;;12.20;73.46
54910;BME280;63189;51.240;9.964;2022-11-02T08:15:59;98284.41;;;12.27;74.05
54910;BME280;63189;51.240;9.964;2022-11-02T08:18:25;98276.09;;;11.87;74.92
54910;BME280;63189;51.240;9.964;2022-11-02T08:20:51;98276.44;;;11.74;74.96
54910;BME280;63189;51.240;9.964;2022-11-02T08:23:18;98274.88;;;11.69;74.54
54910;BME280;63189;51.240;9.964;2022-11-02T08:25:46;98272.78;;;11.81;75.37
54910;BME280;63189;51.240;9.964;2022-11-02T08:28:18;98284.84;;;11.54;75.51
54910;BME280;63189;51.240;9.964;2022-11-02T08:30:44;98304.19;;;11.49;77.02
54910;BME280;63189;51.240;9.964;2022-11-02T08:33:11;98285.91;;;11.78;75.80
54910;BME280;63189;51.240;9.964;2022-11-02T08:35:37;98286.31;;;11.94;75.87
54910;BME280;63189;51.240;9.964;2022-11-02T08:38:03;98301.22;;;12.20;74.37
54910;BME280;63189;51.240;9.964;2022-11-02T08:40:29;98292.25;;;12.27;72.91
54910;BME280;63189;51.240;9.964;2022-11-02T08:42:56;98299.44;;;12.21;72.89
54910;BME280;63189;51.240;9.964;2022-11-02T08:45:22;98289.44;;;12.33;73.97
54910;BME280;63189;51.240;9.964;2022-11-02T08:47:47;98286.88;;;12.04;74.13
54910;BME280;63189;51.240;9.964;2022-11-02T08:50:13;98299.59;;;11.87;73.69
54910;BME280;63189;51.240;9.964;2022-11-02T08:52:39;98286.03;;;12.31;72.25
54910;BME280;63189;51.240;9.964;2022-11-02T08:55:04;98291.16;;;12.34;72.09
54910;BME280;63189;51.240;9.964;2022-11-02T08:57:30;98287.97;;;12.78;70.61
54910;BME280;63189;51.240;9.964;2022-11-02T08:59:56;98292.63;;;12.94;69.57
54910;BME280;63189;51.240;9.964;2022-11-02T09:02:22;98295.28;;;13.19;68.04
54910;BME280;63189;51.240;9.964;2022-11-02T09:04:48;98290.13;;;13.41;68.50
54910;BME280;63189;51.240;9.964;2022-11-02T09:07:13;98285.91;;;13.37;68.19
54910;BME280;63189;51.240;9.964;2022-11-02T09:09:38;98279.75;;;13.62;66.86
54910;BME280;63189;51.240;9.964;2022-11-02T09:12:04;98282.47;;;13.82;65.73
54910;BME280;63189;51.240;9.964;2022-11-02T09:14:29;98278.28;;;13.78;65.05
54910;BME280;63189;51.240;9.964;2022-11-02T09:16:55;98282.22;;;14.11;64.63
54910;BME280;63189;51.240;9.964;2022-11-02T09:19:20;98289.22;;;14.33;64.02
54910;BME280;63189;51.240;9.964;2022-11-02T09:21:45;98309.75;;;14.45;63.05
54910;BME280;63189;51.240;9.964;2022-11-02T09:24:12;98291.06;;;14.31;64.55
54910;BME280;63189;51.240;9.964;2022-11-02T09:26:37;98287.25;;;14.38;63.58
54910;BME280;63189;51.240;9.964;2022-11-02T09:29:02;98298.56;;;14.40;62.63
54910;BME280;63189;51.240;9.964;2022-11-02T09:31:28;98296.16;;;14.34;63.59
54910;BME280;63189;51.240;9.964;2022-11-02T09:33:54;98317.22;;;14.32;62.76
54910;BME280;63189;51.240;9.964;2022-11-02T09:36:19;98307.09;;;14.67;63.32
54910;BME280;63189;51.240;9.964;2022-11-02T09:38:44;98312.03;;;13.85;63.14
54910;BME280;63189;51.240;9.964;2022-11-02T09:43:57;98318.00;;;14.12;63.34
54910;BME280;63189;51.240;9.964;2022-11-02T09:46:34;98329.97;;;13.96;62.92
54910;BME280;63189;51.240;9.964;2022-11-02T09:49:22;98330.44;;;14.07;63.07
54910;BME280;63189;51.240;9.964;2022-11-02T09:51:51;98336.47;;;13.63;63.58
54910;BME280;63189;51.240;9.964;2022-11-02T09:54:32;98340.72;;;13.67;64.17
54910;BME280;63189;51.240;9.964;2022-11-02T09:57:04;98335.16;;;13.76;63.75
54910;BME280;63189;51.240;9.964;2022-11-02T09:59:30;98333.25;;;13.79;63.16
54910;BME280;63189;51.240;9.964;2022-11-02T10:12:36;98360.75;;;14.36;62.04
54910;BME280;63189;51.240;9.964;2022-11-02T10:15:21;98338.59;;;14.45;61.59
54910;BME280;63189;51.240;9.964;2022-11-02T10:17:52;98355.81;;;14.52;61.34
54910;BME280;63189;51.240;9.964;2022-11-02T10:20:26;98351.59;;;14.48;61.07
54910;BME280;63189;51.240;9.964;2022-11-02T10:22:54;98354.91;;;14.53;61.97
54910;BME280;63189;51.240;9.964;2022-11-02T10:25:22;98362.03;;;14.71;61.71
54910;BME280;63189;51.240;9.964;2022-11-02T10:27:49;98362.44;;;14.83;61.96
54910;BME280;63189;51.240;9.964;2022-11-02T10:30:19;98370.59;;;14.97;61.04
54910;BME280;63189;51.240;9.964;2022-11-02T10:32:49;98363.13;;;15.08;61.80
54910;BME280;63189;51.240;9.964;2022-11-02T10:35:24;98376.41;;;15.25;61.50
54910;BME280;63189;51.240;9.964;2022-11-02T10:38:04;98379.69;;;15.30;57.58
54910;BME280;63189;51.240;9.964;2022-11-02T10:43:41;98369.84;;;15.15;56.92
54910;BME280;63189;51.240;9.964;2022-11-02T10:51:21;98379.03;;;15.46;58.82
54910;BME280;63189;51.240;9.964;2022-11-02T10:53:50;98384.16;;;15.28;55.90
54910;BME280;63189;51.240;9.964;2022-11-02T10:56:31;98399.13;;;15.26;56.53
54910;BME280;63189;51.240;9.964;2022-11-02T10:59:14;98395.28;;;14.93;56.35
54910;BME280;63189;51.240;9.964;2022-11-02T11:02:04;98400.50;;;14.72;57.90
54910;BME280;63189;51.240;9.964;2022-11-02T11:04:33;98387.97;;;14.57;57.74
54910;BME280;63189;51.240;9.964;2022-11-02T11:07:06;98398.44;;;14.57;57.59
54910;BME280;63189;51.240;9.964;2022-11-02T11:09:52;98390.53;;;14.59;56.18
54910;BME280;63189;51.240;9.964;2022-11-02T11:12:30;98402.75;;;14.60;57.26
54910;BME280;63189;51.240;9.964;2022-11-02T11:15:00;98391.22;;;14.64;56.69
54910;BME280;63189;51.240;9.964;2022-11-02T11:17:29;98393.69;;;14.67;56.54
54910;BME280;63189;51.240;9.964;2022-11-02T11:19:57;98380.94;;;14.80;57.13
54910;BME280;63189;51.240;9.964;2022-11-02T11:24:47;98385.81;;;14.89;54.59
54910;BME280;63189;51.240;9.964;2022-11-02T11:27:21;98402.69;;;14.83;55.64
54910;BME280;63189;51.240;9.964;2022-11-02T11:29:48;98403.59;;;14.82;55.04
54910;BME280;63189;51.240;9.964;2022-11-02T11:32:19;98396.75;;;14.78;55.34
54910;BME280;63189;51.240;9.964;2022-11-02T11:34:52;98411.28;;;14.87;55.97
54910;BME280;63189;51.240;9.964;2022-11-02T11:37:19;98414.03;;;14.84;55.57
54910;BME280;63189;51.240;9.964;2022-11-02T11:39:45;98405.44;;;14.80;54.61
54910;BME280;63189;51.240;9.964;2022-11-02T11:42:18;98392.91;;;14.87;56.43
54910;BME280;63189;51.240;9.964;2022-11-02T11:44:46;98396.06;;;14.95;55.87
54910;BME280;63189;51.240;9.964;2022-11-02T11:47:23;98402.72;;;15.04;55.62
54910;BME280;63189;51.240;9.964;2022-11-02T11:49:49;98398.00;;;14.69;54.17
54910;BME280;63189;51.240;9.964;2022-11-02T11:52:22;98405.13;;;14.42;54.04
54910;BME280;63189;51.240;9.964;2022-11-02T11:54:57;98388.03;;;14.32;55.19
54910;BME280;63189;51.240;9.964;2022-11-02T11:57:29;98393.53;;;14.50;55.76
54910;BME280;63189;51.240;9.964;2022-11-02T11:59:56;98402.13;;;14.75;57.36
54910;BME280;63189;51.240;9.964;2022-11-02T12:05:14;98392.25;;;14.82;54.45
54910;BME280;63189;51.240;9.964;2022-11-02T12:21:29;98384.78;;;14.93;55.00
54910;BME280;63189;51.240;9.964;2022-11-02T12:30:17;98377.91;;;14.90;56.03
54910;BME280;63189;51.240;9.964;2022-11-02T12:35:36;98372.31;;;14.98;53.35
54910;BME280;63189;51.240;9.964;2022-11-02T12:41:03;98384.06;;;14.67;53.67
54910;BME280;63189;51.240;9.964;2022-11-02T12:43:45;98383.09;;;14.70;52.99
54910;BME280;63189;51.240;9.964;2022-11-02T12:46:30;98377.66;;;14.75;53.00
54910;BME280;63189;51.240;9.964;2022-11-02T12:54:42;98390.03;;;14.93;53.27
54910;BME280;63189;51.240;9.964;2022-11-02T12:57:13;98384.00;;;14.91;52.56
54910;BME280;63189;51.240;9.964;2022-11-02T12:59:41;98395.03;;;14.99;53.73
54910;BME280;63189;51.240;9.964;2022-11-02T13:02:26;98398.91;;;15.11;54.66
54910;BME280;63189;51.240;9.964;2022-11-02T13:05:02;98391.72;;;15.16;53.39
54910;BME280;63189;51.240;9.964;2022-11-02T13:07:37;98400.66;;;15.12;53.61
54910;BME280;63189;51.240;9.964;2022-11-02T13:10:15;98392.00;;;15.08;52.41
54910;BME280;63189;51.240;9.964;2022-11-02T13:12:42;98392.94;;;15.07;53.00
54910;BME280;63189;51.240;9.964;2022-11-02T13:15:14;98398.31;;;15.04;53.35
54910;BME280;63189;51.240;9.964;2022-11-02T13:17:51;98396.25;;;15.12;53.62
54910;BME280;63189;51.240;9.964;2022-11-02T13:20:25;98398.47;;;15.01;51.60
54910;BME280;63189;51.240;9.964;2022-11-02T13:23:00;98401.41;;;14.71;51.60
54910;BME280;63189;51.240;9.964;2022-11-02T13:25:31;98400.56;;;14.49;50.85
54910;BME280;63189;51.240;9.964;2022-11-02T13:28:01;98413.59;;;14.51;51.35
54910;BME280;63189;51.240;9.964;2022-11-02T13:30:30;98390.25;;;14.43;51.69
54910;BME280;63189;51.240;9.964;2022-11-02T13:33:12;98400.88;;;14.40;51.98
54910;BME280;63189;51.240;9.964;2022-11-02T13:35:38;98400.03;;;14.39;52.82
54910;BME280;63189;51.240;9.964;2022-11-02T13:40:42;98407.81;;;14.41;54.30
54910;BME280;63189;51.240;9.964;2022-11-02T13:43:58;98412.09;;;14.43;52.83
54910;BME280;63189;51.240;9.964;2022-11-02T13:49:13;98418.53;;;14.35;52.62
54910;BME280;63189;51.240;9.964;2022-11-02T13:51:53;98414.03;;;14.15;52.95
54910;BME280;63189;51.240;9.964;2022-11-02T13:54:29;98411.22;;;13.98;52.99
54910;BME280;63189;51.240;9.964;2022-11-02T13:56:57;98405.56;;;14.08;52.85
54910;BME280;63189;51.240;9.964;2022-11-02T13:59:29;98412.41;;;14.12;53.94
54910;BME280;63189;51.240;9.964;2022-11-02T14:01:57;98412.41;;;14.12;54.54
54910;BME280;63189;51.240;9.964;2022-11-02T14:04:24;98413.66;;;14.02;53.43
54910;BME280;63189;51.240;9.964;2022-11-02T14:09:35;98409.69;;;13.67;53.50
54910;BME280;63189;51.240;9.964;2022-11-02T14:28:47;98423.91;;;13.60;52.43
54910;BME280;63189;51.240;9.964;2022-11-02T14:34:09;98421.19;;;13.38;52.01
54910;BME280;63189;51.240;9.964;2022-11-02T14:36:51;98436.00;;;13.39;52.52
54910;BME280;63189;51.240;9.964;2022-11-02T14:47:18;98418.81;;;13.04;52.69
54910;BME280;63189;51.240;9.964;2022-11-02T14:49:55;98421.16;;;13.12;53.85
54910;BME280;63189;51.240;9.964;2022-11-02T14:55:00;98404.16;;;12.98;55.18
54910;BME280;63189;51.240;9.964;2022-11-02T14:59:56;98413.97;;;12.92;55.04
54910;BME280;63189;51.240;9.964;2022-11-02T15:02:29;98406.47;;;12.81;55.20
54910;BME280;63189;51.240;9.964;2022-11-02T15:04:57;98406.50;;;12.80;56.36
54910;BME280;63189;51.240;9.964;2022-11-02T15:07:34;98408.19;;;12.82;56.07
54910;BME280;63189;51.240;9.964;2022-11-02T15:10:05;98403.16;;;12.76;55.99
54910;BME280;63189;51.240;9.964;2022-11-02T15:12:35;98410.31;;;12.69;56.43
54910;BME280;63189;51.240;9.964;2022-11-02T15:15:36;98403.50;;;12.65;56.84
54910;BME280;63189;51.240;9.964;2022-11-02T15:26:41;98415.59;;;12.40;57.68
54910;BME280;63189;51.240;9.964;2022-11-02T15:29:30;98422.75;;;12.35;57.47
54910;BME280;63189;51.240;9.964;2022-11-02T15:31:58;98410.81;;;12.26;58.07
54910;BME280;63189;51.240;9.964;2022-11-02T15:34:34;98411.97;;;12.16;58.19
54910;BME280;63189;51.240;9.964;2022-11-02T15:37:01;98418.84;;;12.19;58.72
54910;BME280;63189;51.240;9.964;2022-11-02T15:39:27;98423.53;;;12.09;58.51